Time;durP1;ratioP1;P1;durP2;ratioP2;P2;SDS_P1;SDS_P2;PMS_P1;PMS_P2;Temp;Humidity;BMP_temperature;BMP_pressure;BME280_temperature;BME280_humidity;BME280_pressure;Samples;Min_cycle;Max_cycle;Signal;HPM_P1;HPM_P2
2022/06/04 00:01:35;;;;;;;5.53;3.30;;;;;;;;;;5009220;28;20462;-59
2022/06/04 00:04:00;;;;;;;7.32;3.45;;;;;;;;;;5009039;28;20034;-59
2022/06/04 00:06:25;;;;;;;6.85;3.60;;;;;;;;;;5012280;28;20057;-58
2022/06/04 00:08:51;;;;;;;6.82;3.78;;;;;;;;;;5010124;28;20184;-59
2022/06/04 00:16:45;;;;;;;5.65;3.72;;;;;;;;;;5009967;28;20397;-59
2022/06/04 00:19:11;;;;;;;6.55;3.80;;;;;;;;;;5011244;28;20026;-59
2022/06/04 00:21:37;;;;;;;5.97;3.63;;;;;;;;;;5010519;28;20065;-59
2022/06/04 00:24:03;;;;;;;7.63;4.07;;;;;;;;;;5010653;28;20058;-57
2022/06/04 00:26:28;;;;;;;8.10;4.82;;;;;;;;;;5009883;28;20130;-58
2022/06/04 00:28:53;;;;;;;7.03;4.10;;;;;;;;;;4994847;28;20454;-59
2022/06/04 00:31:19;;;;;;;8.05;3.90;;;;;;;;;;5008301;28;20121;-58
2022/06/04 00:33:45;;;;;;;9.68;4.00;;;;;;;;;;5004576;28;20041;-60
2022/06/04 00:36:11;;;;;;;7.45;3.90;;;;;;;;;;5006053;28;20158;-59
2022/06/04 00:38:36;;;;;;;6.70;4.07;;;;;;;;;;5014604;28;20279;-59
2022/06/04 00:41:30;;;;;;;5.50;3.90;;;;;;;;;;5009008;28;20034;-59
2022/06/04 00:44:10;;;;;;;6.38;3.90;;;;;;;;;;5009158;28;20417;-59
2022/06/04 00:46:41;;;;;;;6.35;3.85;;;;;;;;;;5010850;28;20049;-59
2022/06/04 00:49:12;;;;;;;6.20;4.22;;;;;;;;;;5009782;28;20467;-59
2022/06/04 00:51:40;;;;;;;6.45;4.20;;;;;;;;;;5007543;28;20037;-60
2022/06/04 00:54:06;;;;;;;7.35;4.53;;;;;;;;;;5009496;28;20046;-58
2022/06/04 00:56:55;;;;;;;10.02;4.68;;;;;;;;;;5011721;28;20046;-59
2022/06/04 00:59:40;;;;;;;6.97;4.47;;;;;;;;;;5010043;28;20072;-59
2022/06/04 01:03:00;;;;;;;6.95;4.40;;;;;;;;;;5003128;28;20056;-58
2022/06/04 01:05:45;;;;;;;10.82;4.50;;;;;;;;;;4973857;28;20034;-59
2022/06/04 01:08:39;;;;;;;7.93;4.40;;;;;;;;;;5005059;28;20038;-58
2022/06/04 01:14:56;;;;;;;8.55;4.50;;;;;;;;;;4968671;28;20482;-59
2022/06/04 01:17:59;;;;;;;7.95;4.55;;;;;;;;;;4986109;28;20042;-61
2022/06/04 01:20:34;;;;;;;6.45;4.50;;;;;;;;;;5001016;28;20038;-60
2022/06/04 01:23:18;;;;;;;7.00;4.30;;;;;;;;;;4972922;28;20455;-59
2022/06/04 01:26:01;;;;;;;7.53;4.50;;;;;;;;;;5009303;28;20042;-59
2022/06/04 01:28:29;;;;;;;6.07;4.22;;;;;;;;;;5008913;28;20037;-60
2022/06/04 01:31:00;;;;;;;6.75;4.93;;;;;;;;;;5011307;28;20120;-59
2022/06/04 01:33:40;;;;;;;8.43;4.72;;;;;;;;;;5006439;28;20120;-60
2022/06/04 01:36:19;;;;;;;6.60;4.30;;;;;;;;;;4997855;28;20112;-59
2022/06/04 01:39:00;;;;;;;8.45;4.53;;;;;;;;;;5019468;28;20033;-58
2022/06/04 01:41:33;;;;;;;7.13;4.57;;;;;;;;;;5009786;28;20489;-60
2022/06/04 01:44:21;;;;;;;5.60;4.20;;;;;;;;;;4996728;28;20037;-59
2022/06/04 01:46:51;;;;;;;6.28;4.35;;;;;;;;;;4991477;28;20509;-59
2022/06/04 01:49:31;;;;;;;6.93;5.07;;;;;;;;;;5007344;28;20033;-61
2022/06/04 01:52:02;;;;;;;6.57;4.40;;;;;;;;;;5008725;28;20471;-60
2022/06/04 01:54:54;;;;;;;7.78;4.60;;;;;;;;;;5009722;28;20026;-60
2022/06/04 01:57:29;;;;;;;9.85;4.50;;;;;;;;;;4986732;28;20038;-58
2022/06/04 02:00:00;;;;;;;7.50;4.53;;;;;;;;;;5005502;28;20029;-59
2022/06/04 02:02:36;;;;;;;6.72;4.35;;;;;;;;;;5009191;28;20381;-61
2022/06/04 02:05:06;;;;;;;5.65;4.40;;;;;;;;;;5004093;28;20042;-59
2022/06/04 02:07:37;;;;;;;7.32;4.57;;;;;;;;;;5010742;28;20442;-59
2022/06/04 02:10:21;;;;;;;8.25;4.22;;;;;;;;;;5000113;28;20026;-59
2022/06/04 02:12:55;;;;;;;6.43;4.80;;;;;;;;;;5009506;28;20038;-58
2022/06/04 02:15:25;;;;;;;6.55;4.50;;;;;;;;;;5009404;28;20109;-59
2022/06/04 02:17:54;;;;;;;7.80;4.45;;;;;;;;;;4990526;28;20087;-58
2022/06/04 02:20:22;;;;;;;8.50;4.50;;;;;;;;;;5006690;28;20109;-60
2022/06/04 02:22:49;;;;;;;7.93;4.40;;;;;;;;;;5008692;28;20033;-59
2022/06/04 02:25:15;;;;;;;6.13;4.68;;;;;;;;;;5006301;28;20061;-61
2022/06/04 02:27:41;;;;;;;8.30;4.57;;;;;;;;;;4992065;28;20038;-60
2022/06/04 02:30:09;;;;;;;6.80;4.18;;;;;;;;;;5008837;28;20044;-59
2022/06/04 02:32:34;;;;;;;9.13;4.60;;;;;;;;;;5007454;28;20106;-58
2022/06/04 02:35:02;;;;;;;7.28;4.65;;;;;;;;;;5006500;28;20479;-59
2022/06/04 02:37:35;;;;;;;6.43;4.38;;;;;;;;;;5007519;28;20026;-60
2022/06/04 02:40:12;;;;;;;7.20;4.70;;;;;;;;;;5006760;28;20091;-59
2022/06/04 02:42:54;;;;;;;7.35;4.97;;;;;;;;;;5007469;28;20034;-59
2022/06/04 02:45:24;;;;;;;9.10;4.90;;;;;;;;;;5009520;28;20081;-59
2022/06/04 02:48:22;;;;;;;8.45;4.97;;;;;;;;;;5008084;28;20037;-58
2022/06/04 02:50:55;;;;;;;7.80;4.70;;;;;;;;;;4991890;28;20125;-60
2022/06/04 02:53:21;;;;;;;7.82;4.78;;;;;;;;;;5010748;28;20116;-61
2022/06/04 02:56:07;;;;;;;7.13;4.72;;;;;;;;;;5009359;28;20049;-59
2022/06/04 02:58:34;;;;;;;7.93;5.00;;;;;;;;;;5009654;28;20033;-59
2022/06/04 03:01:03;;;;;;;9.77;4.78;;;;;;;;;;5023199;28;20034;-58
2022/06/04 03:03:28;;;;;;;8.52;4.70;;;;;;;;;;5011117;28;20516;-60
2022/06/04 03:06:03;;;;;;;8.68;4.78;;;;;;;;;;5011945;28;20038;-60
2022/06/04 03:08:32;;;;;;;7.82;4.28;;;;;;;;;;5007062;28;20034;-58
2022/06/04 03:10:58;;;;;;;8.13;4.90;;;;;;;;;;5009617;28;20471;-60
2022/06/04 03:13:23;;;;;;;8.18;4.75;;;;;;;;;;5011641;28;20034;-60
2022/06/04 03:15:49;;;;;;;8.45;5.20;;;;;;;;;;5011390;28;21665;-59
2022/06/04 03:18:16;;;;;;;8.20;4.95;;;;;;;;;;5010399;28;20109;-58
2022/06/04 03:20:42;;;;;;;10.43;5.22;;;;;;;;;;5011185;28;20041;-58
2022/06/04 03:23:07;;;;;;;7.32;5.00;;;;;;;;;;5008152;28;20037;-59
2022/06/04 03:25:34;;;;;;;7.88;5.38;;;;;;;;;;4991991;28;20030;-59
2022/06/04 03:28:00;;;;;;;9.85;5.38;;;;;;;;;;5011916;28;20538;-60
2022/06/04 03:30:26;;;;;;;7.53;4.93;;;;;;;;;;5011566;28;20132;-60
2022/06/04 03:32:52;;;;;;;8.65;4.88;;;;;;;;;;5010971;28;20034;-58
2022/06/04 03:35:18;;;;;;;7.07;4.72;;;;;;;;;;5008821;28;20471;-59
2022/06/04 03:37:43;;;;;;;7.93;5.18;;;;;;;;;;5009090;28;20045;-59
2022/06/04 03:40:10;;;;;;;8.05;5.05;;;;;;;;;;4994112;28;20120;-59
2022/06/04 03:42:36;;;;;;;6.72;5.30;;;;;;;;;;5012523;28;20041;-58
2022/06/04 03:45:02;;;;;;;8.45;4.95;;;;;;;;;;5011538;28;20046;-59
2022/06/04 03:47:28;;;;;;;8.18;5.18;;;;;;;;;;5011761;28;20033;-60
2022/06/04 03:49:54;;;;;;;8.40;5.32;;;;;;;;;;5009967;28;20038;-58
2022/06/04 03:52:19;;;;;;;7.43;5.13;;;;;;;;;;5010872;28;20088;-59
2022/06/04 03:54:53;;;;;;;8.95;5.03;;;;;;;;;;5007979;28;20549;-59
2022/06/04 03:57:41;;;;;;;8.05;5.03;;;;;;;;;;5009202;28;20045;-59
2022/06/04 04:00:20;;;;;;;7.15;5.13;;;;;;;;;;5004534;28;20041;-57
2022/06/04 04:03:07;;;;;;;7.80;5.22;;;;;;;;;;5006442;28;20749;-59
2022/06/04 04:05:36;;;;;;;7.15;5.00;;;;;;;;;;5008011;28;20124;-59
2022/06/04 04:08:05;;;;;;;9.35;5.47;;;;;;;;;;5011476;28;20065;-59
2022/06/04 04:10:31;;;;;;;8.07;5.60;;;;;;;;;;5009612;28;20455;-59
2022/06/04 04:12:57;;;;;;;9.35;5.60;;;;;;;;;;5009403;28;20041;-60
2022/06/04 04:15:23;;;;;;;8.73;5.20;;;;;;;;;;5010014;28;20108;-59
2022/06/04 04:17:49;;;;;;;7.75;5.10;;;;;;;;;;5005798;28;20437;-59
2022/06/04 04:20:22;;;;;;;7.05;4.90;;;;;;;;;;5004483;28;20050;-60
2022/06/04 04:22:48;;;;;;;9.00;5.28;;;;;;;;;;5009202;28;20542;-60
2022/06/04 04:25:17;;;;;;;8.13;5.50;;;;;;;;;;4988153;28;20041;-59
2022/06/04 04:27:43;;;;;;;7.63;5.38;;;;;;;;;;5012742;28;20038;-59
2022/06/04 04:30:11;;;;;;;7.13;5.20;;;;;;;;;;5010218;28;20064;-60
2022/06/04 04:32:36;;;;;;;8.60;5.13;;;;;;;;;;5009656;28;20398;-60
2022/06/04 04:35:04;;;;;;;7.68;5.10;;;;;;;;;;5010537;28;20030;-59
2022/06/04 04:37:29;;;;;;;7.65;5.45;;;;;;;;;;5011180;28;20037;-60
2022/06/04 04:39:54;;;;;;;7.82;5.20;;;;;;;;;;5011581;28;20077;-60
2022/06/04 04:42:20;;;;;;;6.85;4.90;;;;;;;;;;5013170;28;20387;-60
2022/06/04 04:44:45;;;;;;;9.30;5.00;;;;;;;;;;4992975;28;20025;-60
2022/06/04 04:47:11;;;;;;;7.68;5.10;;;;;;;;;;5010168;28;20096;-59
2022/06/04 04:49:36;;;;;;;8.05;5.15;;;;;;;;;;5010764;28;20030;-60
2022/06/04 04:52:03;;;;;;;7.65;5.10;;;;;;;;;;5011962;28;20038;-60
2022/06/04 04:54:29;;;;;;;9.65;5.03;;;;;;;;;;5010431;28;20041;-58
2022/06/04 04:56:54;;;;;;;7.68;5.30;;;;;;;;;;5008933;28;20034;-58
2022/06/04 04:59:20;;;;;;;7.68;5.03;;;;;;;;;;5010984;28;20386;-58
2022/06/04 05:01:45;;;;;;;7.05;5.43;;;;;;;;;;5010985;28;20138;-58
2022/06/04 05:04:11;;;;;;;9.30;5.30;;;;;;;;;;5008361;28;20068;-58
2022/06/04 05:06:36;;;;;;;6.68;4.95;;;;;;;;;;5009575;28;20108;-58
2022/06/04 05:09:03;;;;;;;8.20;4.88;;;;;;;;;;5010814;28;20474;-58
2022/06/04 05:11:30;;;;;;;10.75;4.90;;;;;;;;;;4994283;28;20069;-58
2022/06/04 05:13:57;;;;;;;8.27;5.10;;;;;;;;;;5010189;28;20084;-58
2022/06/04 05:16:25;;;;;;;8.05;4.50;;;;;;;;;;4996880;28;20087;-61
2022/06/04 05:18:51;;;;;;;6.03;4.60;;;;;;;;;;5008335;28;20038;-60
2022/06/04 05:21:27;;;;;;;6.40;4.38;;;;;;;;;;5010284;28;20099;-60
2022/06/04 05:23:56;;;;;;;7.18;4.70;;;;;;;;;;5010227;28;20030;-60
2022/06/04 05:26:23;;;;;;;7.30;4.82;;;;;;;;;;5011427;28;20041;-60
2022/06/04 05:28:49;;;;;;;6.30;5.00;;;;;;;;;;5009761;28;20026;-60
2022/06/04 05:31:15;;;;;;;8.15;4.82;;;;;;;;;;5012914;28;20048;-60
2022/06/04 05:33:41;;;;;;;6.38;4.57;;;;;;;;;;5010339;28;20038;-60
2022/06/04 05:36:07;;;;;;;8.10;4.95;;;;;;;;;;5009234;28;20060;-60
2022/06/04 05:38:34;;;;;;;6.72;4.90;;;;;;;;;;5007502;28;20466;-60
2022/06/04 05:41:08;;;;;;;7.35;4.70;;;;;;;;;;4993791;28;20033;-61
2022/06/04 05:43:34;;;;;;;7.40;4.70;;;;;;;;;;5004748;28;20442;-60
2022/06/04 05:46:06;;;;;;;9.27;4.70;;;;;;;;;;5009570;28;20113;-61
2022/06/04 05:48:32;;;;;;;7.35;4.60;;;;;;;;;;5010696;28;20026;-60
2022/06/04 05:50:58;;;;;;;7.13;4.70;;;;;;;;;;5009429;28;20052;-61
2022/06/04 05:53:24;;;;;;;6.20;4.22;;;;;;;;;;5025081;28;20644;-61
2022/06/04 05:55:51;;;;;;;9.05;4.60;;;;;;;;;;5008490;28;20042;-60
2022/06/04 05:58:16;;;;;;;6.68;4.70;;;;;;;;;;5006982;28;20037;-61
2022/06/04 06:00:42;;;;;;;8.68;5.05;;;;;;;;;;5010441;28;20038;-60
2022/06/04 06:03:08;;;;;;;8.55;4.70;;;;;;;;;;5011902;28;20120;-60
2022/06/04 06:05:33;;;;;;;7.40;4.80;;;;;;;;;;5010539;28;20026;-61
2022/06/04 06:07:59;;;;;;;7.47;4.70;;;;;;;;;;5005446;28;20096;-61
2022/06/04 06:10:26;;;;;;;7.25;4.63;;;;;;;;;;4994987;28;20438;-61
2022/06/04 06:12:53;;;;;;;7.45;4.43;;;;;;;;;;4991518;28;20046;-61
2022/06/04 06:15:19;;;;;;;8.25;4.50;;;;;;;;;;5009990;28;20038;-61
2022/06/04 06:17:44;;;;;;;6.97;4.50;;;;;;;;;;5011070;28;20030;-61
2022/06/04 06:20:10;;;;;;;7.60;4.72;;;;;;;;;;5011454;28;20080;-61
2022/06/04 06:22:35;;;;;;;8.13;4.70;;;;;;;;;;5011276;28;20113;-60
2022/06/04 06:25:05;;;;;;;7.57;4.93;;;;;;;;;;5011355;28;20029;-61
2022/06/04 06:27:31;;;;;;;8.27;4.78;;;;;;;;;;5011657;28;20026;-61
2022/06/04 06:29:56;;;;;;;6.05;4.70;;;;;;;;;;5007944;28;20617;-61
2022/06/04 06:32:23;;;;;;;8.30;5.00;;;;;;;;;;5010258;28;20049;-61
2022/06/04 06:34:49;;;;;;;9.23;4.65;;;;;;;;;;5009652;28;20474;-61
2022/06/04 06:37:15;;;;;;;7.13;4.68;;;;;;;;;;5013037;28;20038;-73
2022/06/04 06:39:40;;;;;;;7.13;4.85;;;;;;;;;;5029597;28;20046;-64
2022/06/04 06:42:06;;;;;;;8.90;5.00;;;;;;;;;;5015509;28;20462;-62
2022/06/04 06:44:31;;;;;;;8.98;4.95;;;;;;;;;;5015070;28;20102;-63
2022/06/04 06:46:57;;;;;;;8.45;4.75;;;;;;;;;;5014171;28;20044;-62
2022/06/04 06:49:25;;;;;;;6.15;4.38;;;;;;;;;;5015356;28;20034;-62
2022/06/04 06:51:56;;;;;;;7.38;4.55;;;;;;;;;;5012169;28;20402;-61
2022/06/04 06:54:25;;;;;;;7.60;4.53;;;;;;;;;;5014322;28;20041;-60
2022/06/04 06:56:51;;;;;;;7.97;4.80;;;;;;;;;;5012927;28;20030;-58
2022/06/04 06:59:21;;;;;;;6.00;4.32;;;;;;;;;;5014289;28;20033;-57
2022/06/04 07:01:49;;;;;;;8.30;4.40;;;;;;;;;;5013756;28;20034;-57
2022/06/04 07:04:14;;;;;;;6.00;4.65;;;;;;;;;;5015079;28;20030;-57
2022/06/04 07:06:43;;;;;;;6.60;4.97;;;;;;;;;;4996430;28;20442;-58
2022/06/04 07:09:21;;;;;;;6.13;4.38;;;;;;;;;;5014986;28;20026;-56
2022/06/04 07:11:47;;;;;;;6.75;4.88;;;;;;;;;;5028536;28;20056;-56
2022/06/04 07:14:12;;;;;;;8.25;4.65;;;;;;;;;;5011401;28;20403;-57
2022/06/04 07:16:39;;;;;;;5.78;4.68;;;;;;;;;;5014476;28;20045;-58
2022/06/04 07:19:05;;;;;;;6.72;4.90;;;;;;;;;;5014325;28;20029;-56
2022/06/04 07:21:31;;;;;;;6.65;4.70;;;;;;;;;;5013676;28;20037;-55
2022/06/04 07:23:57;;;;;;;7.07;4.60;;;;;;;;;;5012260;28;20360;-57
2022/06/04 07:26:23;;;;;;;6.25;4.82;;;;;;;;;;5014422;28;20030;-57
2022/06/04 07:28:49;;;;;;;6.85;4.55;;;;;;;;;;5013647;28;20029;-55
2022/06/04 07:31:16;;;;;;;7.40;4.60;;;;;;;;;;5013370;28;20110;-56
2022/06/04 07:33:43;;;;;;;9.18;4.75;;;;;;;;;;5010034;28;20117;-57
2022/06/04 07:36:14;;;;;;;5.65;4.63;;;;;;;;;;5013991;28;20479;-55
2022/06/04 07:38:39;;;;;;;7.75;4.53;;;;;;;;;;5014037;28;20475;-57
2022/06/04 07:41:05;;;;;;;7.50;4.35;;;;;;;;;;5013966;28;20036;-57
2022/06/04 07:43:30;;;;;;;7.18;4.50;;;;;;;;;;5013974;28;20050;-54
2022/06/04 07:45:55;;;;;;;7.00;4.93;;;;;;;;;;5013313;28;20459;-56
2022/06/04 07:48:21;;;;;;;7.05;4.57;;;;;;;;;;5011216;28;20042;-56
2022/06/04 07:50:46;;;;;;;8.23;4.75;;;;;;;;;;5013882;28;20033;-55
2022/06/04 07:53:12;;;;;;;5.95;4.63;;;;;;;;;;5014264;28;20030;-56
2022/06/04 07:55:39;;;;;;;6.85;4.72;;;;;;;;;;5012716;28;20042;-56
2022/06/04 07:58:06;;;;;;;5.47;4.57;;;;;;;;;;5013349;28;20030;-52
2022/06/04 08:00:31;;;;;;;7.32;5.18;;;;;;;;;;5013839;28;20038;-56
2022/06/04 08:02:57;;;;;;;6.95;4.68;;;;;;;;;;5012848;28;20108;-55
2022/06/04 08:05:22;;;;;;;9.05;4.68;;;;;;;;;;5029101;28;20142;-57
2022/06/04 08:07:48;;;;;;;6.60;4.45;;;;;;;;;;5006126;28;20026;-55
2022/06/04 08:10:13;;;;;;;8.38;4.78;;;;;;;;;;5005401;28;20428;-55
2022/06/04 08:13:00;;;;;;;8.73;4.90;;;;;;;;;;5013396;28;20032;-53
2022/06/04 08:15:25;;;;;;;6.43;4.75;;;;;;;;;;5011501;28;20077;-56
2022/06/04 08:17:51;;;;;;;7.47;4.97;;;;;;;;;;5012646;28;20418;-57
2022/06/04 08:20:17;;;;;;;9.93;4.75;;;;;;;;;;5012963;28;20034;-54
2022/06/04 08:23:03;;;;;;;9.35;4.95;;;;;;;;;;5013033;28;20168;-58
2022/06/04 08:25:29;;;;;;;6.43;4.60;;;;;;;;;;5002148;28;20463;-55
2022/06/04 08:27:54;;;;;;;6.13;4.70;;;;;;;;;;5012033;28;20033;-56
2022/06/04 08:30:20;;;;;;;7.63;4.90;;;;;;;;;;5011959;28;20030;-57
2022/06/04 08:32:45;;;;;;;7.18;4.78;;;;;;;;;;5012646;28;20121;-58
2022/06/04 08:35:10;;;;;;;6.43;4.72;;;;;;;;;;5012802;28;20033;-56
2022/06/04 08:37:36;;;;;;;9.05;4.65;;;;;;;;;;5008252;28;20445;-55
2022/06/04 08:40:02;;;;;;;5.95;4.82;;;;;;;;;;5013202;28;20041;-56
2022/06/04 08:42:36;;;;;;;7.20;4.75;;;;;;;;;;5013011;28;20087;-56
2022/06/04 08:45:02;;;;;;;6.18;4.65;;;;;;;;;;5006397;28;20088;-61
2022/06/04 08:47:39;;;;;;;8.52;4.90;;;;;;;;;;5011874;28;20109;-60
2022/06/04 08:50:21;;;;;;;6.93;4.78;;;;;;;;;;5012029;28;20018;-61
2022/06/04 08:53:22;;;;;;;7.05;4.70;;;;;;;;;;4993826;28;20562;-60
2022/06/04 08:58:56;;;;;;;7.85;4.80;;;;;;;;;;5011885;28;19924;-60
2022/06/04 09:01:39;;;;;;;6.00;4.40;;;;;;;;;;5011741;28;20061;-60
2022/06/04 09:04:25;;;;;;;6.35;4.45;;;;;;;;;;5011137;28;20106;-60
2022/06/04 09:07:03;;;;;;;5.93;4.40;;;;;;;;;;4998099;28;20037;-60
2022/06/04 09:09:51;;;;;;;8.02;4.57;;;;;;;;;;4993971;28;20033;-60
2022/06/04 09:12:36;;;;;;;7.55;4.70;;;;;;;;;;5011969;28;20033;-60
2022/06/04 09:15:16;;;;;;;7.80;4.72;;;;;;;;;;5002514;28;20053;-61
2022/06/04 09:17:56;;;;;;;9.60;4.93;;;;;;;;;;5009496;28;20045;-61
2022/06/04 09:20:42;;;;;;;7.15;4.70;;;;;;;;;;4988231;28;20052;-62
2022/06/04 09:23:35;;;;;;;7.28;4.82;;;;;;;;;;5007498;28;20040;-60
2022/06/04 09:26:13;;;;;;;7.55;4.78;;;;;;;;;;4991815;28;20034;-61
2022/06/04 09:29:20;;;;;;;6.60;4.80;;;;;;;;;;4999639;28;20360;-60
2022/06/04 09:32:12;;;;;;;5.97;4.43;;;;;;;;;;5002095;28;20136;-60
2022/06/04 09:34:47;;;;;;;7.18;4.53;;;;;;;;;;4959137;28;20534;-61
2022/06/04 09:37:14;;;;;;;7.75;4.30;;;;;;;;;;4987044;28;20107;-61
2022/06/04 09:39:44;;;;;;;6.72;5.30;;;;;;;;;;5012221;28;20041;-61
2022/06/04 09:42:13;;;;;;;5.77;4.67;;;;;;;;;;4993626;28;20287;-61
2022/06/04 09:45:04;;;;;;;7.65;4.47;;;;;;;;;;4991610;28;20176;-61
2022/06/04 09:47:43;;;;;;;;;;;;;;;;;;4975802;28;20485;-61
2022/06/04 09:50:27;;;;;;;7.32;4.50;;;;;;;;;;4974140;28;20067;-61
2022/06/04 09:53:21;;;;;;;6.32;4.70;;;;;;;;;;4990315;28;20026;-59
2022/06/04 09:55:52;;;;;;;6.00;4.90;;;;;;;;;;4986257;28;20549;-60
2022/06/04 09:58:28;;;;;;;13.30;5.47;;;;;;;;;;5006114;28;20033;-60
2022/06/04 10:01:01;;;;;;;6.55;4.70;;;;;;;;;;5013349;28;20034;-61
2022/06/04 10:03:32;;;;;;;6.70;4.85;;;;;;;;;;4992754;28;20026;-61
2022/06/04 10:06:14;;;;;;;8.60;5.20;;;;;;;;;;5009860;28;20033;-61
2022/06/04 10:11:59;;;;;;;7.72;5.35;;;;;;;;;;5013474;28;20465;-61
2022/06/04 10:14:39;;;;;;;9.13;5.55;;;;;;;;;;5030574;28;20065;-59
2022/06/04 10:17:35;;;;;;;8.07;5.05;;;;;;;;;;5013167;28;20550;-60
2022/06/04 10:20:03;;;;;;;7.50;4.95;;;;;;;;;;4997606;28;20034;-61
2022/06/04 10:22:29;;;;;;;8.35;5.35;;;;;;;;;;4997425;28;20037;-60
2022/06/04 10:25:02;;;;;;;11.23;5.82;;;;;;;;;;5013782;28;20386;-60
2022/06/04 10:27:50;;;;;;;7.30;5.05;;;;;;;;;;4996171;28;20035;-61
2022/06/04 10:30:27;;;;;;;7.35;5.00;;;;;;;;;;4996132;28;20030;-61
2022/06/04 10:33:23;;;;;;;7.22;5.50;;;;;;;;;;4977849;28;20339;-61
2022/06/04 10:36:21;;;;;;;8.05;5.70;;;;;;;;;;4986193;28;20471;-60
2022/06/04 10:39:09;;;;;;;7.28;5.22;;;;;;;;;;4991090;28;20030;-60
2022/06/04 10:41:51;;;;;;;6.53;5.15;;;;;;;;;;4997232;28;20514;-60
2022/06/04 10:44:35;;;;;;;7.63;5.43;;;;;;;;;;4996935;28;20038;-61
2022/06/04 10:47:12;;;;;;;7.90;5.03;;;;;;;;;;5012548;28;20064;-61
2022/06/04 10:50:15;;;;;;;6.40;5.20;;;;;;;;;;5013102;28;20038;-61
2022/06/04 10:52:45;;;;;;;6.45;5.07;;;;;;;;;;4990822;28;20134;-63
2022/06/04 10:55:18;;;;;;;8.25;5.40;;;;;;;;;;5027618;28;20129;-63
2022/06/04 10:58:10;;;;;;;7.22;5.10;;;;;;;;;;4997414;28;20088;-61
2022/06/04 11:00:41;;;;;;;8.25;4.95;;;;;;;;;;4997847;28;20044;-60
2022/06/04 11:03:36;;;;;;;10.23;5.35;;;;;;;;;;4977713;28;20045;-62
2022/06/04 11:06:14;;;;;;;6.72;5.40;;;;;;;;;;4986336;28;20050;-62
2022/06/04 11:08:51;;;;;;;7.50;4.55;;;;;;;;;;5013021;28;20034;-61
2022/06/04 11:11:39;;;;;;;6.95;4.90;;;;;;;;;;4996915;28;20061;-62
2022/06/04 11:14:16;;;;;;;5.97;4.50;;;;;;;;;;4980538;28;20046;-60
2022/06/04 11:16:54;;;;;;;7.20;5.10;;;;;;;;;;4992420;28;20034;-61
2022/06/04 11:19:44;;;;;;;6.05;4.68;;;;;;;;;;4995695;28;20490;-61
2022/06/04 11:22:20;;;;;;;8.43;4.53;;;;;;;;;;5028260;28;20068;-61
2022/06/04 11:25:01;;;;;;;6.45;4.80;;;;;;;;;;5017823;28;20043;-61
2022/06/04 11:27:34;;;;;;;6.68;4.90;;;;;;;;;;5029530;28;20470;-60
2022/06/04 11:30:02;;;;;;;6.97;4.40;;;;;;;;;;5012753;28;20033;-61
2022/06/04 11:32:48;;;;;;;6.07;4.32;;;;;;;;;;5012973;28;20042;-60
2022/06/04 11:35:41;;;;;;;8.52;4.30;;;;;;;;;;5031551;28;20482;-61
2022/06/04 11:38:36;;;;;;;5.57;4.65;;;;;;;;;;5004134;28;20040;-61
2022/06/04 11:41:19;;;;;;;5.68;4.38;;;;;;;;;;4996027;28;20125;-60
2022/06/04 11:44:23;;;;;;;5.95;3.78;;;;;;;;;;5029644;28;20084;-61
2022/06/04 11:47:26;;;;;;;6.47;4.10;;;;;;;;;;5025988;28;20125;-60
2022/06/04 11:50:00;;;;;;;5.25;4.22;;;;;;;;;;5026053;28;20511;-61
2022/06/04 11:52:29;;;;;;;65.95;7.65;;;;;;;;;;4976594;28;20129;-61
2022/06/04 11:55:34;;;;;;;93.82;7.22;;;;;;;;;;4990739;28;20057;-63
2022/06/04 11:58:22;;;;;;;6.20;4.00;;;;;;;;;;4975246;28;20092;-61
2022/06/04 12:00:49;;;;;;;5.20;4.07;;;;;;;;;;5012221;28;20105;-60
2022/06/04 12:03:22;;;;;;;5.30;4.22;;;;;;;;;;5028140;28;20037;-61
2022/06/04 12:06:07;;;;;;;9.60;4.20;;;;;;;;;;5012207;28;20034;-59
2022/06/04 12:08:44;;;;;;;6.80;4.10;;;;;;;;;;5003673;28;20034;-59
2022/06/04 12:11:39;;;;;;;5.57;4.50;;;;;;;;;;4992257;28;20034;-60
2022/06/04 12:14:16;;;;;;;9.27;3.92;;;;;;;;;;5027831;28;20470;-60
2022/06/04 12:16:51;;;;;;;5.25;4.18;;;;;;;;;;5012211;28;20038;-61
2022/06/04 12:25:45;;;;;;;5.70;4.00;;;;;;;;;;5013590;28;20548;-62
2022/06/04 12:28:21;;;;;;;5.22;3.70;;;;;;;;;;4992382;28;20394;-62
2022/06/04 12:30:48;;;;;;;8.43;3.63;;;;;;;;;;4995918;28;20032;-62
2022/06/04 12:33:23;;;;;;;5.55;3.80;;;;;;;;;;5026167;28;20046;-61
2022/06/04 12:36:22;;;;;;;5.65;3.28;;;;;;;;;;5021348;28;20037;-62
2022/06/04 12:38:59;;;;;;;5.65;3.70;;;;;;;;;;4984670;28;20052;-62
2022/06/04 12:41:37;;;;;;;5.05;3.58;;;;;;;;;;5008928;28;20092;-62
2022/06/04 12:44:05;;;;;;;6.35;3.60;;;;;;;;;;5012338;28;20026;-65
2022/06/04 12:46:34;;;;;;;4.40;3.20;;;;;;;;;;5023926;28;20026;-64
2022/06/04 12:49:06;;;;;;;6.18;3.47;;;;;;;;;;5012533;28;20032;-65
2022/06/04 12:52:22;;;;;;;6.05;3.60;;;;;;;;;;4993911;28;20041;-62
2022/06/04 12:55:07;;;;;;;5.25;4.00;;;;;;;;;;5026090;28;20048;-62
2022/06/04 12:57:44;;;;;;;5.70;3.50;;;;;;;;;;4994831;28;20053;-63
2022/06/04 13:00:23;;;;;;;6.90;3.60;;;;;;;;;;4997923;28;20045;-61
2022/06/04 13:02:55;;;;;;;8.23;3.67;;;;;;;;;;5007202;28;20502;-62
2022/06/04 13:05:26;;;;;;;5.97;3.92;;;;;;;;;;5024841;28;20276;-63
2022/06/04 13:08:08;;;;;;;7.13;4.15;;;;;;;;;;5024114;28;20041;-63
2022/06/04 13:10:45;;;;;;;5.82;3.85;;;;;;;;;;4988046;28;20034;-62
2022/06/04 13:13:27;;;;;;;6.38;3.75;;;;;;;;;;4985683;28;20103;-62
2022/06/04 13:15:56;;;;;;;6.40;3.53;;;;;;;;;;4992106;28;20038;-63
2022/06/04 13:18:29;;;;;;;6.50;3.70;;;;;;;;;;4987548;28;20107;-61
2022/06/04 13:21:00;;;;;;;6.85;4.10;;;;;;;;;;4989285;28;20045;-63
2022/06/04 13:23:42;;;;;;;6.28;3.80;;;;;;;;;;4997857;28;20392;-65
2022/06/04 13:26:32;;;;;;;6.82;3.50;;;;;;;;;;5009374;28;20084;-58
2022/06/04 13:29:01;;;;;;;4.93;3.28;;;;;;;;;;5016960;28;20030;-61
2022/06/04 13:31:32;;;;;;;4.43;3.47;;;;;;;;;;5011892;28;20371;-65
2022/06/04 13:34:11;;;;;;;4.72;3.50;;;;;;;;;;5016757;28;20048;-65
2022/06/04 13:36:37;;;;;;;4.72;3.38;;;;;;;;;;5022505;28;20078;-65
2022/06/04 13:39:02;;;;;;;4.55;3.50;;;;;;;;;;4981238;28;20125;-62
2022/06/04 13:44:27;;;;;;;4.65;3.47;;;;;;;;;;5004834;28;20056;-60
2022/06/04 13:47:26;;;;;;;3.58;2.90;;;;;;;;;;5013920;28;20030;-60
2022/06/04 13:50:15;;;;;;;5.95;3.60;;;;;;;;;;5010657;28;20470;-61
2022/06/04 13:53:17;;;;;;;5.55;3.03;;;;;;;;;;5017980;28;20079;-60
2022/06/04 13:55:51;;;;;;;3.47;3.00;;;;;;;;;;5017613;28;20051;-63
2022/06/04 13:58:25;;;;;;;5.88;3.10;;;;;;;;;;5017352;28;20493;-62
2022/06/04 14:00:58;;;;;;;6.20;2.90;;;;;;;;;;5017596;28;20040;-64
2022/06/04 14:03:34;;;;;;;6.05;3.05;;;;;;;;;;5013334;28;20186;-67
2022/06/04 14:06:00;;;;;;;5.38;3.25;;;;;;;;;;5014069;28;20072;-66
2022/06/04 14:08:30;;;;;;;5.18;3.40;;;;;;;;;;5015834;28;20025;-67
2022/06/04 14:11:09;;;;;;;4.47;3.17;;;;;;;;;;5016487;28;20526;-67
2022/06/04 14:13:49;;;;;;;7.20;4.03;;;;;;;;;;4999676;28;20064;-68
2022/06/04 14:16:53;;;;;;;5.20;3.28;;;;;;;;;;5015519;28;20041;-64
2022/06/04 14:19:42;;;;;;;6.82;4.72;;;;;;;;;;5000564;28;20053;-66
2022/06/04 14:22:25;;;;;;;6.55;5.20;;;;;;;;;;5017702;28;20033;-63
2022/06/04 14:25:16;;;;;;;5.18;3.03;;;;;;;;;;5014325;28;20558;-62
2022/06/04 14:28:15;;;;;;;5.40;3.60;;;;;;;;;;5023060;28;20079;-65
2022/06/04 14:31:01;;;;;;;5.97;3.20;;;;;;;;;;4988045;28;20178;-65
2022/06/04 14:33:26;;;;;;;5.15;3.33;;;;;;;;;;5016003;28;20144;-61
2022/06/04 14:36:19;;;;;;;6.40;3.13;;;;;;;;;;5014069;28;20117;-61
2022/06/04 14:38:47;;;;;;;6.70;2.90;;;;;;;;;;5006659;28;20026;-62
2022/06/04 14:41:21;;;;;;;3.92;2.88;;;;;;;;;;4998617;28;20379;-62
2022/06/04 14:44:19;;;;;;;7.68;2.90;;;;;;;;;;5014479;28;20049;-62
2022/06/04 14:46:51;;;;;;;5.53;3.20;;;;;;;;;;4996902;28;20117;-62
2022/06/04 14:49:37;;;;;;;4.45;3.00;;;;;;;;;;5009550;28;20487;-62
2022/06/04 14:52:28;;;;;;;5.25;3.05;;;;;;;;;;5003662;28;20042;-62
2022/06/04 14:54:58;;;;;;;5.03;3.17;;;;;;;;;;5011016;28;20050;-62
2022/06/04 14:57:50;;;;;;;5.32;2.88;;;;;;;;;;5011770;28;20033;-62
2022/06/04 15:00:28;;;;;;;3.80;2.83;;;;;;;;;;5012966;28;20034;-61
2022/06/04 15:03:18;;;;;;;5.70;2.90;;;;;;;;;;5029770;28;20034;-61
2022/06/04 15:05:55;;;;;;;4.38;2.83;;;;;;;;;;5014832;28;20033;-61
2022/06/04 15:08:42;;;;;;;4.63;3.20;;;;;;;;;;5008444;28;20030;-61
2022/06/04 15:11:13;;;;;;;3.45;2.78;;;;;;;;;;5003562;28;20026;-61
2022/06/04 15:13:57;;;;;;;5.35;2.80;;;;;;;;;;4997387;28;20117;-62
2022/06/04 15:16:38;;;;;;;3.53;2.92;;;;;;;;;;4994901;28;20486;-62
2022/06/04 15:19:03;;;;;;;5.13;2.90;;;;;;;;;;5005564;28;20482;-61
2022/06/04 15:22:13;;;;;;;4.10;2.75;;;;;;;;;;5013687;28;20127;-61
2022/06/04 15:24:59;;;;;;;4.85;2.70;;;;;;;;;;5011963;28;20034;-62
2022/06/04 15:28:01;;;;;;;3.95;2.75;;;;;;;;;;5012539;28;20148;-61
2022/06/04 15:34:00;;;;;;;5.60;2.92;;;;;;;;;;5012052;28;20152;-61
2022/06/04 15:36:35;;;;;;;6.07;2.75;;;;;;;;;;5012560;28;20038;-62
2022/06/04 15:39:28;;;;;;;4.60;2.70;;;;;;;;;;5012703;28;20152;-61
2022/06/04 15:42:06;;;;;;;5.10;3.00;;;;;;;;;;5007477;28;20548;-61
2022/06/04 15:44:33;;;;;;;4.72;2.78;;;;;;;;;;5013598;28;20044;-62
2022/06/04 15:47:14;;;;;;;3.92;2.80;;;;;;;;;;5012156;28;20041;-61
2022/06/04 15:55:59;;;;;;;4.97;2.70;;;;;;;;;;5012015;28;20057;-62
2022/06/04 15:58:41;;;;;;;4.10;2.85;;;;;;;;;;5025854;28;20041;-61
2022/06/04 16:01:30;;;;;;;3.75;2.63;;;;;;;;;;5029038;28;20044;-62